Wright Patterson Air Force Base Dayton US
ICAO: KFFO
IATA: FFO
Category: Large
Scheduled Services: No

Elevation: 823 ft
TransAlt. 18000 ft.

Airport Communications:
DAYTON APP/DEP:118.85
ATIS:124.475
GND:121.8
PMSV METRO:34.46
445AW AFRC COMD POST:34.94
PTD:122.85
PATTERSON TWR:126.9

KFFO Zoom In..

Runways:

(A) RW 05L length 12600 ft width 300 ft
ILS 109.70 / hdg 53

(B) RW 05R length 7000 ft width 150 ft
---- / hdg 53

(C) RW 23L length 7000 ft width 150 ft
---- / hdg 233

(D) RW 23R length 12600 ft width 300 ft
ILS 109.70 / hdg 233

Location; KFFO
Day. 19 / Time. 19.56 Zulu
* Altimeter: 30.01
* Temperature: 28° c. 82.4°f.
* Wind from: 150° Speed 10 kn.
Dewpoint: 12° c.
Visibility: 10 Statute Miles.
Clouds: Clear (automated report).

KFFO 191956Z AUTO 15010KT 10SM CLR 28/12 A3001 RMK AO2 SLP160 T02820121


Wind From 150°
Speed 10 kn.

 
 
jpsmedia.com for Web Design worldairports.se 2018   terms of use